createdAt,value
2023-03-14T00:00:25.371Z,10.70
2023-03-14T00:02:56.449Z,10.70
2023-03-14T00:05:24.675Z,10.60
2023-03-14T00:07:52.711Z,10.60
2023-03-14T00:10:20.857Z,10.60
2023-03-14T00:12:48.693Z,10.60
2023-03-14T00:15:16.688Z,10.60
2023-03-14T00:17:46.029Z,10.50
2023-03-14T00:20:15.529Z,10.50
2023-03-14T00:22:44.094Z,10.50
2023-03-14T00:25:13.275Z,10.60
2023-03-14T00:27:41.346Z,10.70
2023-03-14T00:30:10.605Z,10.70
2023-03-14T00:32:38.566Z,10.70
2023-03-14T00:35:07.992Z,10.70
2023-03-14T00:37:37.744Z,10.80
2023-03-14T00:40:08.307Z,10.80
2023-03-14T00:42:36.499Z,10.80
2023-03-14T00:45:04.911Z,10.80
2023-03-14T00:47:33.146Z,10.90
2023-03-14T00:50:01.005Z,10.80
2023-03-14T00:52:29.025Z,10.80
2023-03-14T00:54:58.540Z,10.80
2023-03-14T00:57:26.289Z,10.80
2023-03-14T00:59:54.532Z,10.80
2023-03-14T01:02:22.545Z,10.70
2023-03-14T01:04:50.942Z,10.70
2023-03-14T01:07:19.015Z,10.80
2023-03-14T01:09:47.325Z,10.80
2023-03-14T01:12:16.598Z,10.90
2023-03-14T01:14:44.796Z,10.90
2023-03-14T01:17:12.744Z,10.90
2023-03-14T01:19:40.703Z,11.00
2023-03-14T01:22:08.698Z,11.00
2023-03-14T01:24:36.728Z,11.00
2023-03-14T01:27:04.729Z,11.00
2023-03-14T01:29:34.631Z,11.00
2023-03-14T01:32:02.480Z,11.00
2023-03-14T01:34:30.375Z,11.10
2023-03-14T01:36:58.433Z,11.10
2023-03-14T01:39:26.441Z,11.10
2023-03-14T01:41:54.372Z,11.00
2023-03-14T01:44:22.361Z,11.00
2023-03-14T01:46:51.560Z,11.00
2023-03-14T01:49:26.672Z,10.90
2023-03-14T01:52:00.635Z,10.90
2023-03-14T01:54:33.802Z,10.80
2023-03-14T01:57:07.299Z,10.80
2023-03-14T01:59:36.606Z,10.80
2023-03-14T02:02:08.569Z,10.70
2023-03-14T02:04:39.054Z,10.70
2023-03-14T02:07:14.342Z,10.70
2023-03-14T02:09:43.422Z,10.70
2023-03-14T02:12:13.412Z,10.70
2023-03-14T02:14:43.345Z,10.70
2023-03-14T02:17:12.585Z,10.70
2023-03-14T02:20:01.131Z,10.70
2023-03-14T02:22:29.153Z,10.70
2023-03-14T02:25:03.999Z,10.60
2023-03-14T02:27:33.662Z,10.60
2023-03-14T02:30:04.899Z,10.60
2023-03-14T02:32:36.434Z,10.60
2023-03-14T02:35:08.707Z,10.60
2023-03-14T02:37:40.719Z,10.50
2023-03-14T02:40:10.115Z,10.50
2023-03-14T02:42:39.484Z,10.50
2023-03-14T02:45:42.848Z,10.50
2023-03-14T02:48:16.400Z,10.50
2023-03-14T02:50:45.708Z,10.60
2023-03-14T02:53:16.155Z,10.60
2023-03-14T02:55:47.392Z,10.60
2023-03-14T02:58:17.722Z,10.60
2023-03-14T03:00:46.043Z,10.60
2023-03-14T03:03:14.496Z,10.70
2023-03-14T03:05:43.408Z,10.70
2023-03-14T03:08:11.876Z,10.70
2023-03-14T03:10:40.093Z,10.80
2023-03-14T03:13:08.153Z,10.80
2023-03-14T03:15:37.532Z,10.80
2023-03-14T03:18:05.886Z,10.80
2023-03-14T03:20:34.108Z,10.90
2023-03-14T03:23:02.529Z,10.90
2023-03-14T03:25:31.013Z,10.90
2023-03-14T03:27:59.346Z,11.00
2023-03-14T03:30:27.233Z,11.00
2023-03-14T03:32:56.468Z,11.00
2023-03-14T03:35:24.408Z,11.10
2023-03-14T03:37:52.390Z,11.10
2023-03-14T03:40:20.373Z,11.10
2023-03-14T03:42:48.346Z,11.10
2023-03-14T03:45:16.614Z,11.10
2023-03-14T03:47:44.854Z,11.10
2023-03-14T03:50:14.098Z,11.10
2023-03-14T03:52:42.080Z,11.00
2023-03-14T03:55:10.628Z,11.00
2023-03-14T03:57:38.560Z,10.90
2023-03-14T04:00:09.923Z,10.90
2023-03-14T04:02:37.835Z,10.90
2023-03-14T04:05:06.402Z,10.90
2023-03-14T04:07:35.837Z,10.90
2023-03-14T04:10:03.880Z,10.90
2023-03-14T04:12:31.671Z,10.80
2023-03-14T04:14:59.637Z,10.80
2023-03-14T04:17:27.773Z,10.80
2023-03-14T04:19:55.590Z,10.80
2023-03-14T04:22:23.426Z,10.80
2023-03-14T04:24:52.643Z,10.80
2023-03-14T04:27:20.672Z,10.80
2023-03-14T04:29:48.458Z,10.80
2023-03-14T04:32:16.489Z,10.80
2023-03-14T04:34:44.592Z,10.70
2023-03-14T04:37:12.487Z,10.80
2023-03-14T04:39:40.405Z,10.80
2023-03-14T04:42:09.845Z,10.80
2023-03-14T04:44:37.938Z,10.80
2023-03-14T04:47:05.818Z,10.80
2023-03-14T04:49:33.886Z,10.80
2023-03-14T04:52:01.678Z,10.80
2023-03-14T04:54:29.542Z,10.80
2023-03-14T04:56:57.629Z,10.90
2023-03-14T04:59:27.399Z,10.90
2023-03-14T05:01:55.224Z,11.00
2023-03-14T05:04:23.141Z,10.90
2023-03-14T05:06:51.093Z,11.00
2023-03-14T05:09:19.208Z,11.00
2023-03-14T05:11:47.410Z,11.00
2023-03-14T05:14:15.399Z,11.10
2023-03-14T05:16:44.723Z,11.00
2023-03-14T05:19:13.545Z,11.00
2023-03-14T05:21:41.453Z,11.00
2023-03-14T05:24:09.407Z,11.10
2023-03-14T05:26:37.661Z,11.00
2023-03-14T05:29:05.510Z,11.00
2023-03-14T05:31:33.384Z,11.00
2023-03-14T05:34:02.520Z,11.00
2023-03-14T05:36:30.395Z,11.00
2023-03-14T05:38:58.428Z,11.00
2023-03-14T05:41:26.268Z,11.00
2023-03-14T05:43:54.128Z,11.00
2023-03-14T05:46:22.075Z,11.00
2023-03-14T05:48:50.262Z,11.00
2023-03-14T05:51:19.581Z,11.00
2023-03-14T05:53:47.423Z,10.90
2023-03-14T05:56:15.276Z,10.90
2023-03-14T05:58:43.192Z,11.00
2023-03-14T06:01:11.144Z,10.90
2023-03-14T06:03:39.063Z,10.90
2023-03-14T06:06:07.501Z,10.90
2023-03-14T06:08:36.650Z,10.90
2023-03-14T06:11:05.397Z,10.90
2023-03-14T06:13:33.601Z,10.90
2023-03-14T06:16:01.471Z,10.80
2023-03-14T06:18:29.341Z,10.90
2023-03-14T06:20:57.493Z,10.80
2023-03-14T06:23:25.650Z,10.80
2023-03-14T06:25:54.986Z,10.90
2023-03-14T06:28:24.891Z,10.90
2023-03-14T06:30:53.850Z,10.90
2023-03-14T06:33:21.928Z,10.80
2023-03-14T06:35:49.737Z,10.80
2023-03-14T06:38:17.894Z,10.80
2023-03-14T06:40:46.029Z,10.80
2023-03-14T06:43:15.356Z,10.80
2023-03-14T06:45:43.339Z,10.80
2023-03-14T06:48:11.067Z,10.80
2023-03-14T06:50:38.904Z,10.80
2023-03-14T06:53:09.343Z,10.90
2023-03-14T06:55:37.159Z,10.90
2023-03-14T06:58:05.003Z,10.90
2023-03-14T07:00:34.306Z,10.90
2023-03-14T07:03:02.504Z,10.90
2023-03-14T07:05:30.614Z,11.00
2023-03-14T07:07:58.840Z,11.00
2023-03-14T07:10:27.065Z,11.00
2023-03-14T07:12:54.996Z,11.00
2023-03-14T07:15:22.867Z,11.00
2023-03-14T07:17:52.228Z,10.90
2023-03-14T07:20:20.325Z,11.00
2023-03-14T07:22:50.307Z,10.90
2023-03-14T07:25:18.693Z,10.90
2023-03-14T07:27:47.750Z,10.90
2023-03-14T07:30:16.525Z,10.90
2023-03-14T07:32:44.541Z,11.00
2023-03-14T07:35:13.710Z,11.00
2023-03-14T07:37:41.612Z,11.10
2023-03-14T07:40:11.666Z,11.20
2023-03-14T07:42:39.532Z,11.30
2023-03-14T07:45:09.165Z,11.40
2023-03-14T07:47:37.047Z,11.50
2023-03-14T07:50:05.269Z,11.50
2023-03-14T07:52:34.700Z,11.50
2023-03-14T07:55:02.856Z,11.50
2023-03-14T07:57:30.628Z,11.50
2023-03-14T07:59:58.501Z,11.40
2023-03-14T08:02:26.385Z,11.30
2023-03-14T08:04:54.272Z,11.30
2023-03-14T08:07:22.130Z,11.30
2023-03-14T08:09:51.698Z,11.30
2023-03-14T08:12:19.571Z,11.30
2023-03-14T08:14:47.504Z,11.30
2023-03-14T08:17:15.273Z,11.40
2023-03-14T08:19:43.422Z,11.50
2023-03-14T08:22:11.430Z,11.60
2023-03-14T08:24:39.281Z,11.70
2023-03-14T08:27:10.971Z,11.70
2023-03-14T08:29:39.011Z,11.80
2023-03-14T08:32:06.926Z,11.90
2023-03-14T08:34:35.369Z,11.90
2023-03-14T08:37:06.692Z,11.90
2023-03-14T08:39:38.967Z,12.00
2023-03-14T08:42:08.239Z,12.00
2023-03-14T08:44:36.113Z,12.10
2023-03-14T08:47:04.046Z,12.10
2023-03-14T08:49:32.057Z,12.10
2023-03-14T08:51:59.904Z,12.20
2023-03-14T08:54:27.929Z,12.10
2023-03-14T08:56:55.990Z,12.10
2023-03-14T08:59:26.286Z,12.10
2023-03-14T09:01:55.137Z,12.10
2023-03-14T09:04:23.442Z,12.10
2023-03-14T09:06:51.317Z,12.20
2023-03-14T09:09:19.285Z,12.20
2023-03-14T09:11:47.145Z,12.30
2023-03-14T09:14:15.059Z,12.40
2023-03-14T09:16:44.434Z,12.30
2023-03-14T09:19:12.662Z,12.30
2023-03-14T09:21:40.455Z,12.30
2023-03-14T09:24:09.397Z,12.20
2023-03-14T09:26:37.273Z,12.10
2023-03-14T09:29:05.365Z,12.10
2023-03-14T09:31:33.336Z,12.10
2023-03-14T09:34:03.112Z,12.10
2023-03-14T09:36:31.216Z,12.10
2023-03-14T09:38:59.076Z,12.00
2023-03-14T09:41:29.698Z,11.90
2023-03-14T09:44:04.490Z,11.80
2023-03-14T09:46:34.665Z,11.80
2023-03-14T09:49:04.034Z,11.60
2023-03-14T09:51:33.277Z,11.50
2023-03-14T09:54:02.046Z,11.30
2023-03-14T09:56:34.464Z,11.20
2023-03-14T09:59:05.506Z,11.10
2023-03-14T10:01:36.542Z,10.90
2023-03-14T10:04:11.541Z,10.60
2023-03-14T10:06:39.420Z,10.20
2023-03-14T10:09:07.597Z,9.90
2023-03-14T10:11:35.770Z,9.70
2023-03-14T10:14:09.958Z,9.40
2023-03-14T10:16:39.765Z,9.20
2023-03-14T10:19:12.654Z,9.00
2023-03-14T10:21:42.365Z,8.80
2023-03-14T10:24:12.874Z,8.70
2023-03-14T10:26:40.981Z,8.50
2023-03-14T10:29:13.148Z,8.40
2023-03-14T10:31:55.978Z,8.30
2023-03-14T10:34:27.653Z,8.20
2023-03-14T10:36:57.500Z,8.10
2023-03-14T10:39:35.584Z,8.00
2023-03-14T10:42:13.645Z,8.00
2023-03-14T10:44:41.934Z,8.00
2023-03-14T10:47:19.478Z,8.00
2023-03-14T10:49:49.239Z,7.90
2023-03-14T10:52:31.291Z,7.90
2023-03-14T10:55:10.811Z,7.90
2023-03-14T10:57:41.089Z,7.80
2023-03-14T11:00:16.642Z,7.70
2023-03-14T11:03:10.060Z,7.60
2023-03-14T11:05:45.877Z,7.50
2023-03-14T11:08:19.165Z,7.40
2023-03-14T11:10:50.854Z,7.40
2023-03-14T11:13:26.395Z,7.30
2023-03-14T11:16:03.986Z,7.20
2023-03-14T11:19:05.392Z,7.10
2023-03-14T11:21:43.173Z,7.00
2023-03-14T11:24:27.744Z,7.00
2023-03-14T11:27:03.713Z,7.00
2023-03-14T11:29:38.545Z,6.90
2023-03-14T11:32:15.164Z,6.90
2023-03-14T11:34:51.375Z,6.90
2023-03-14T11:37:28.157Z,6.90
2023-03-14T11:40:02.798Z,6.90
2023-03-14T11:42:32.759Z,6.80
2023-03-14T11:45:02.175Z,6.90
2023-03-14T11:47:35.573Z,6.90
2023-03-14T11:50:09.958Z,6.90
2023-03-14T11:52:44.557Z,6.90
2023-03-14T11:55:20.090Z,7.10
2023-03-14T11:57:49.225Z,7.20
2023-03-14T12:00:20.608Z,7.30
2023-03-14T12:02:55.515Z,7.50
2023-03-14T12:05:38.835Z,7.50
2023-03-14T12:08:34.550Z,7.60
2023-03-14T12:11:06.786Z,7.60
2023-03-14T12:13:38.196Z,7.70
2023-03-14T12:16:08.962Z,7.60
2023-03-14T12:18:40.374Z,7.60
2023-03-14T12:21:10.169Z,7.50
2023-03-14T12:23:44.322Z,7.50
2023-03-14T12:26:18.261Z,7.50
2023-03-14T12:28:51.363Z,7.40
2023-03-14T12:31:39.340Z,7.40
2023-03-14T12:34:28.945Z,7.30
2023-03-14T12:37:03.648Z,7.20
2023-03-14T12:39:45.086Z,7.30
2023-03-14T12:42:15.559Z,7.30
2023-03-14T12:44:48.688Z,7.30
2023-03-14T12:47:49.884Z,7.40
2023-03-14T12:50:23.145Z,7.50
2023-03-14T12:53:28.350Z,7.50
2023-03-14T12:56:03.885Z,7.50
2023-03-14T12:58:37.245Z,7.40
2023-03-14T13:01:06.944Z,7.30
2023-03-14T13:03:47.222Z,7.30
2023-03-14T13:06:15.396Z,7.20
2023-03-14T13:08:44.609Z,7.20
2023-03-14T13:11:17.052Z,7.30
2023-03-14T13:13:49.353Z,7.40
2023-03-14T13:16:20.589Z,7.60
2023-03-14T13:18:49.912Z,7.70
2023-03-14T13:21:20.741Z,7.90
2023-03-14T13:24:00.368Z,8.00
2023-03-14T13:26:37.523Z,8.10
2023-03-14T13:29:16.342Z,8.10
2023-03-14T13:31:46.751Z,8.20
2023-03-14T13:34:15.355Z,8.20
2023-03-14T13:36:43.593Z,8.20
2023-03-14T13:39:15.230Z,8.20
2023-03-14T13:41:44.636Z,8.20
2023-03-14T13:44:18.041Z,8.10
2023-03-14T13:46:46.084Z,8.10
2023-03-14T13:49:19.135Z,8.10
2023-03-14T13:51:46.902Z,8.10
2023-03-14T13:54:17.161Z,8.10
2023-03-14T13:56:46.614Z,8.10
2023-03-14T13:59:24.684Z,8.20
2023-03-14T14:01:53.425Z,8.20
2023-03-14T14:04:24.093Z,8.20
2023-03-14T14:06:55.075Z,8.20
2023-03-14T14:09:26.686Z,8.20
2023-03-14T14:12:14.927Z,8.10
2023-03-14T14:14:46.880Z,8.10
2023-03-14T14:17:18.936Z,8.10
2023-03-14T14:19:48.832Z,8.10
2023-03-14T14:22:16.857Z,8.10
2023-03-14T14:24:45.010Z,8.10
2023-03-14T14:27:18.973Z,8.20
2023-03-14T14:30:00.373Z,8.30
2023-03-14T14:32:28.344Z,8.40
2023-03-14T14:35:00.434Z,8.40
2023-03-14T14:37:30.964Z,8.30
2023-03-14T14:40:01.116Z,8.20
2023-03-14T14:42:32.354Z,8.10
2023-03-14T14:45:01.788Z,8.00
2023-03-14T14:47:31.115Z,8.00
2023-03-14T14:50:04.759Z,8.00
2023-03-14T14:52:41.970Z,8.00
2023-03-14T14:55:20.576Z,8.00
2023-03-14T14:57:57.181Z,8.00
2023-03-14T15:00:26.920Z,8.10
2023-03-14T15:02:56.556Z,8.10
2023-03-14T15:05:26.628Z,8.10
2023-03-14T15:07:54.527Z,8.10
2023-03-14T15:10:25.250Z,8.00
2023-03-14T15:12:54.910Z,8.00
2023-03-14T15:15:23.093Z,8.00
2023-03-14T15:17:50.914Z,8.00
2023-03-14T15:20:20.437Z,8.00
2023-03-14T15:22:48.839Z,8.00
2023-03-14T15:25:40.079Z,8.00
2023-03-14T15:28:15.390Z,8.00
2023-03-14T15:30:43.223Z,8.00
2023-03-14T15:33:11.710Z,7.90
2023-03-14T15:35:44.093Z,7.90
2023-03-14T15:38:13.728Z,7.90
2023-03-14T15:40:42.254Z,7.80
2023-03-14T15:43:11.575Z,7.70
2023-03-14T15:45:39.507Z,7.60
2023-03-14T15:48:07.514Z,7.50
2023-03-14T15:50:35.308Z,7.50
2023-03-14T15:53:03.488Z,7.40
2023-03-14T15:55:31.273Z,7.40
2023-03-14T15:57:59.949Z,7.30
2023-03-14T16:00:31.115Z,7.20
2023-03-14T16:02:59.258Z,7.20
2023-03-14T16:05:27.135Z,7.10
2023-03-14T16:07:55.217Z,7.10
2023-03-14T16:10:23.148Z,7.10
2023-03-14T16:12:51.170Z,7.10
2023-03-14T16:15:19.105Z,7.10
2023-03-14T16:17:49.865Z,7.10
2023-03-14T16:20:20.460Z,7.00
2023-03-14T16:22:48.773Z,7.00
2023-03-14T16:25:19.004Z,6.90
2023-03-14T16:27:49.064Z,6.80
2023-03-14T16:30:17.245Z,6.80
2023-03-14T16:32:49.119Z,6.70
2023-03-14T16:35:17.568Z,6.60
2023-03-14T16:37:45.407Z,6.50
2023-03-14T16:40:14.086Z,6.50
2023-03-14T16:43:05.289Z,6.40
2023-03-14T16:45:30.826Z,6.30
2023-03-14T16:47:59.975Z,6.30
2023-03-14T16:50:28.005Z,6.20
2023-03-14T16:52:56.499Z,6.10
2023-03-14T16:55:24.358Z,6.10
2023-03-14T16:57:52.244Z,6.10
2023-03-14T17:00:22.312Z,6.00
2023-03-14T17:02:50.356Z,6.00
2023-03-14T17:05:21.127Z,5.90
2023-03-14T17:07:50.354Z,5.90
2023-03-14T17:10:18.443Z,5.80
2023-03-14T17:12:47.125Z,5.70
2023-03-14T17:15:15.215Z,5.70
2023-03-14T17:17:43.090Z,5.70
2023-03-14T17:20:12.607Z,5.60
2023-03-14T17:22:42.319Z,5.60
2023-03-14T17:25:10.685Z,5.50
2023-03-14T17:27:39.401Z,5.50
2023-03-14T17:30:09.035Z,5.50
2023-03-14T17:32:37.249Z,5.40
2023-03-14T17:35:06.355Z,5.40
2023-03-14T17:37:35.083Z,5.30
2023-03-14T17:40:06.016Z,5.30
2023-03-14T17:42:34.443Z,5.30
2023-03-14T17:45:03.849Z,5.20
2023-03-14T17:47:31.783Z,5.20
2023-03-14T17:50:01.013Z,5.10
2023-03-14T17:52:29.219Z,5.10
2023-03-14T17:54:57.200Z,5.00
2023-03-14T17:57:27.949Z,5.00
2023-03-14T17:59:56.218Z,5.00
2023-03-14T18:02:26.297Z,4.90
2023-03-14T18:04:54.936Z,4.90
2023-03-14T18:07:23.437Z,4.90
2023-03-14T18:09:52.701Z,4.80
2023-03-14T18:12:20.700Z,4.80
2023-03-14T18:14:50.299Z,4.80
2023-03-14T18:17:18.384Z,4.80
2023-03-14T18:19:46.396Z,4.70
2023-03-14T18:22:15.992Z,4.70
2023-03-14T18:24:44.290Z,4.70
2023-03-14T18:27:12.385Z,4.60
2023-03-14T18:29:42.420Z,4.60
2023-03-14T18:32:12.097Z,4.50
2023-03-14T18:34:40.270Z,4.50
2023-03-14T18:37:08.652Z,4.50
2023-03-14T18:39:36.863Z,4.40
2023-03-14T18:42:06.337Z,4.40
2023-03-14T18:44:34.176Z,4.30
2023-03-14T18:47:02.144Z,4.30
2023-03-14T18:49:35.014Z,4.30
2023-03-14T18:52:05.634Z,4.30
2023-03-14T18:54:33.664Z,4.30
2023-03-14T18:57:01.981Z,4.30
2023-03-14T18:59:30.192Z,4.20
2023-03-14T19:01:58.345Z,4.20
2023-03-14T19:04:26.553Z,4.20
2023-03-14T19:06:56.610Z,4.10
2023-03-14T19:09:24.832Z,4.10
2023-03-14T19:11:53.098Z,4.10
2023-03-14T19:14:21.451Z,4.10
2023-03-14T19:16:49.528Z,4.00
2023-03-14T19:19:18.169Z,4.00
2023-03-14T19:21:46.404Z,4.00
2023-03-14T19:24:20.892Z,4.00
2023-03-14T19:26:49.026Z,4.00
2023-03-14T19:29:18.653Z,3.90
2023-03-14T19:31:46.751Z,3.90
2023-03-14T19:34:14.752Z,3.90
2023-03-14T19:36:44.360Z,3.80
2023-03-14T19:39:12.475Z,3.80
2023-03-14T19:41:42.030Z,3.80
2023-03-14T19:44:13.081Z,3.80
2023-03-14T19:46:41.428Z,3.70
2023-03-14T19:49:09.334Z,3.70
2023-03-14T19:51:37.463Z,3.70
2023-03-14T19:54:05.359Z,3.60
2023-03-14T19:56:33.930Z,3.60
2023-03-14T19:59:04.157Z,3.60
2023-03-14T20:01:33.205Z,3.60
2023-03-14T20:04:04.266Z,3.60
2023-03-14T20:06:33.070Z,3.60
2023-03-14T20:09:04.673Z,3.50
2023-03-14T20:11:32.591Z,3.50
2023-03-14T20:14:00.498Z,3.50
2023-03-14T20:16:29.805Z,3.50
2023-03-14T20:18:57.814Z,3.50
2023-03-14T20:21:27.359Z,3.50
2023-03-14T20:23:55.707Z,3.50
2023-03-14T20:26:23.678Z,3.60
2023-03-14T20:28:51.756Z,3.70
2023-03-14T20:31:20.201Z,3.70
2023-03-14T20:33:51.466Z,3.80
2023-03-14T20:36:19.738Z,3.80
2023-03-14T20:38:47.967Z,3.70
2023-03-14T20:41:16.036Z,3.70
2023-03-14T20:43:43.903Z,3.60
2023-03-14T20:46:14.087Z,3.60
2023-03-14T20:48:42.072Z,3.50
2023-03-14T20:51:12.299Z,3.40
2023-03-14T20:53:40.279Z,3.30
2023-03-14T20:56:09.228Z,3.20
2023-03-14T20:58:37.069Z,3.10
2023-03-14T21:01:06.189Z,3.10
2023-03-14T21:03:34.177Z,3.00
2023-03-14T21:06:02.401Z,2.90
2023-03-14T21:08:31.801Z,2.90
2023-03-14T21:10:59.776Z,2.90
2023-03-14T21:13:28.236Z,2.80
2023-03-14T21:15:56.087Z,2.80
2023-03-14T21:18:24.281Z,2.70
2023-03-14T21:20:54.803Z,2.70
2023-03-14T21:23:26.657Z,2.70
2023-03-14T21:25:57.240Z,2.70
2023-03-14T21:28:25.593Z,2.70
2023-03-14T21:30:53.725Z,2.70
2023-03-14T21:33:21.766Z,2.60
2023-03-14T21:35:49.678Z,2.60
2023-03-14T21:38:17.451Z,2.70
2023-03-14T21:40:49.934Z,2.70
2023-03-14T21:43:19.985Z,2.60
2023-03-14T21:45:49.390Z,2.70
2023-03-14T21:48:17.462Z,2.70
2023-03-14T21:50:47.133Z,2.70
2023-03-14T21:53:15.349Z,2.60
2023-03-14T21:55:43.665Z,2.60
2023-03-14T21:58:14.415Z,2.60
2023-03-14T22:00:48.965Z,2.50
2023-03-14T22:03:17.300Z,2.60
2023-03-14T22:05:46.695Z,2.60
2023-03-14T22:08:16.017Z,2.60
2023-03-14T22:10:45.896Z,2.60
2023-03-14T22:13:14.180Z,2.60
2023-03-14T22:15:45.619Z,2.60
2023-03-14T22:18:13.919Z,2.70
2023-03-14T22:20:41.751Z,2.70
2023-03-14T22:23:10.108Z,2.70
2023-03-14T22:25:41.176Z,2.70
2023-03-14T22:28:09.213Z,2.70
2023-03-14T22:30:37.128Z,2.80
2023-03-14T22:33:06.868Z,2.80
2023-03-14T22:35:35.921Z,2.80
2023-03-14T22:38:03.811Z,2.80
2023-03-14T22:40:31.628Z,2.90
2023-03-14T22:42:59.670Z,2.80
2023-03-14T22:45:27.560Z,2.80
2023-03-14T22:47:55.383Z,2.70
2023-03-14T22:50:24.497Z,2.70
2023-03-14T22:52:52.752Z,2.70
2023-03-14T22:55:20.845Z,2.60
2023-03-14T22:57:52.575Z,2.60
2023-03-14T23:00:21.080Z,2.50
2023-03-14T23:02:49.367Z,2.50
2023-03-14T23:05:17.689Z,2.50
2023-03-14T23:07:47.181Z,2.40
2023-03-14T23:10:15.573Z,2.40
2023-03-14T23:12:45.190Z,2.40
2023-03-14T23:15:15.640Z,2.50
2023-03-14T23:17:43.815Z,2.50
2023-03-14T23:20:13.751Z,2.50
2023-03-14T23:22:41.783Z,2.50
2023-03-14T23:25:12.646Z,2.60
2023-03-14T23:27:46.514Z,2.60
2023-03-14T23:30:16.527Z,2.60
2023-03-14T23:32:45.027Z,2.70
2023-03-14T23:35:13.919Z,2.70
2023-03-14T23:37:42.254Z,2.70
2023-03-14T23:40:12.861Z,2.70
2023-03-14T23:42:40.896Z,2.70
2023-03-14T23:45:09.360Z,2.70
2023-03-14T23:47:37.315Z,2.60
2023-03-14T23:50:05.717Z,2.50
2023-03-14T23:52:34.091Z,2.50
2023-03-14T23:55:01.930Z,2.50
2023-03-14T23:57:31.305Z,2.50
2023-03-14T23:59:59.197Z,2.60
